Narrandera, New South Wales

7:44 PM AEST on September 17, 2014 (GMT +1000)
INEWSOUT154 | Change Station
CLOSE
Current Station
Personal Weather Station
Location: Leeton, NEW SOUTH WALES
Elevation: 436 ft
Nearby Weather Stations

Elev 436 ft 34.54 °S, 146.40 °E | Updated 4 minutes ago

Scattered Clouds
Scattered Clouds
52.1 °F
Feels Like 52.1 °F
N
6.0
Wind Variable Wind from NW
Gusts 6.0 mph

Today
High -- | Low -- °F
--% Chance of Precip.
Yesterday
High -- | Low -- °F
Precip. -- in
6:11 AM 6:06 PM
Last Quarter, 37% visible
Pressure 30.04 in
Visibility 6.2 miles
Clouds Scattered Clouds 7400 ft
Dew Point 27 °F
Humidity 38%
Rainfall 0.00 in
Snow Depth Not available.
UV 0.0 out of 12
Pollen Not available.
Air Quality Not available.
Flu Activity Not available.
METAR YGTH 170900Z AUTO 24008KT 9999 // SCT074 13/00 Q1017

More Conditions Fewer Conditions

Pressure 30.04 in
Visibility 6.2 miles
Clouds Scattered Clouds 7400 ft
Dew Point 27 °F
Humidity 38%
Rainfall 0.00 in
Snow Depth Not available.
UV 0.0 out of 12
Pollen Not available.
Air Quality Not available.
Flu Activity Not available.
METAR YGTH 170900Z AUTO 24008KT 9999 // SCT074 13/00 Q1017

More Conditions Fewer Conditions

10-Day Weather Forecast

Almanac

Astronomy

Sep. 17, 2014 Rise Set
Actual Time 6:11 AM AEST 6:06 PM AEST
Civil Twilight 5:46 AM AEST 6:31 PM AEST
Nautical Twilight 5:16 AM AEST 7:00 PM AEST
Astronomical Twilight 4:47 AM AEST 7:30 PM AEST
Moon 1:26 AM AEST 11:59 AM AEST
Length of Visible Light 12h 45m
Length of Day
11h 54m
Tomorrow will be 2m 9s longer.
Last Quarter, 37% of the Moon is Illuminated
Today
Last Quarter
Sep 24
New
Oct 1
First Quarter
Oct 8
Full
Oct 15
Last Quarter

Yesterday's Extremes

Country Highs Country Lows

Community

WunderPhotos

Upload Photos

1,753,991 photos uploaded!

Nearby

Snow Depth

Not available.

Earthquake Activity

City Distance Mag. Time & Date
No recent earthquake activity has been reported nearby.
Minimum magnitude displayed is 2.5.

Coastal Water Temperatures

Place Temperature
No Stations Reporting

Nearby Weather Stations